sensor_id;sensor_type;location;lat;lon;timestamp;temperature;humidity
20712;DHT22;10517;50.742;4.224;2024-03-23T00:53:44;8.00;99.90
20712;DHT22;10517;50.742;4.224;2024-03-23T00:56:10;8.10;99.90
20712;DHT22;10517;50.742;4.224;2024-03-23T00:58:35;8.10;99.90
20712;DHT22;10517;50.742;4.224;2024-03-23T01:01:01;8.00;99.90
20712;DHT22;10517;50.742;4.224;2024-03-23T01:03:29;8.00;99.90
20712;DHT22;10517;50.742;4.224;2024-03-23T01:05:58;7.90;99.90
20712;DHT22;10517;50.742;4.224;2024-03-23T01:08:24;7.90;99.90
20712;DHT22;10517;50.742;4.224;2024-03-23T01:11:00;7.80;99.90
20712;DHT22;10517;50.742;4.224;2024-03-23T01:13:26;7.70;99.90
20712;DHT22;10517;50.742;4.224;2024-03-23T01:15:52;7.70;99.90
20712;DHT22;10517;50.742;4.224;2024-03-23T01:18:19;7.70;99.90
20712;DHT22;10517;50.742;4.224;2024-03-23T01:20:45;7.60;99.90
20712;DHT22;10517;50.742;4.224;2024-03-23T01:23:11;7.60;99.90
20712;DHT22;10517;50.742;4.224;2024-03-23T01:25:37;7.60;99.90
20712;DHT22;10517;50.742;4.224;2024-03-23T01:28:03;7.60;99.90
20712;DHT22;10517;50.742;4.224;2024-03-23T01:30:28;7.60;99.90
20712;DHT22;10517;50.742;4.224;2024-03-23T01:32:54;7.50;99.90
20712;DHT22;10517;50.742;4.224;2024-03-23T01:35:19;7.60;99.90
20712;DHT22;10517;50.742;4.224;2024-03-23T01:37:45;7.70;99.90
20712;DHT22;10517;50.742;4.224;2024-03-23T01:40:11;7.80;99.90
20712;DHT22;10517;50.742;4.224;2024-03-23T01:42:39;7.90;99.90
20712;DHT22;10517;50.742;4.224;2024-03-23T01:45:08;8.00;99.90
20712;DHT22;10517;50.742;4.224;2024-03-23T01:47:35;8.10;99.90
20712;DHT22;10517;50.742;4.224;2024-03-23T01:50:01;8.20;99.90
20712;DHT22;10517;50.742;4.224;2024-03-23T01:52:27;8.20;99.90
20712;DHT22;10517;50.742;4.224;2024-03-23T01:54:53;8.20;99.90
20712;DHT22;10517;50.742;4.224;2024-03-23T01:57:19;8.20;99.90
20712;DHT22;10517;50.742;4.224;2024-03-23T01:59:46;8.30;99.90
20712;DHT22;10517;50.742;4.224;2024-03-23T02:02:12;8.30;99.90
20712;DHT22;10517;50.742;4.224;2024-03-23T02:04:38;8.20;99.90
20712;DHT22;10517;50.742;4.224;2024-03-23T02:07:04;8.20;99.90
20712;DHT22;10517;50.742;4.224;2024-03-23T02:09:31;8.20;99.90
20712;DHT22;10517;50.742;4.224;2024-03-23T02:11:57;8.30;99.90
20712;DHT22;10517;50.742;4.224;2024-03-23T02:14:23;8.30;99.90
20712;DHT22;10517;50.742;4.224;2024-03-23T02:16:49;8.30;99.90
20712;DHT22;10517;50.742;4.224;2024-03-23T02:19:14;8.30;99.90
20712;DHT22;10517;50.742;4.224;2024-03-23T02:21:40;8.20;99.90
20712;DHT22;10517;50.742;4.224;2024-03-23T02:24:05;8.20;99.90
20712;DHT22;10517;50.742;4.224;2024-03-23T02:26:31;8.20;99.90
20712;DHT22;10517;50.742;4.224;2024-03-23T02:28:57;8.20;99.90
20712;DHT22;10517;50.742;4.224;2024-03-23T02:31:22;8.10;99.90
20712;DHT22;10517;50.742;4.224;2024-03-23T02:33:48;8.10;99.90
20712;DHT22;10517;50.742;4.224;2024-03-23T02:36:13;8.10;99.90
20712;DHT22;10517;50.742;4.224;2024-03-23T02:38:39;8.00;99.90
20712;DHT22;10517;50.742;4.224;2024-03-23T02:41:05;8.10;99.90
20712;DHT22;10517;50.742;4.224;2024-03-23T02:43:31;8.10;99.90
20712;DHT22;10517;50.742;4.224;2024-03-23T02:45:56;8.10;99.90
20712;DHT22;10517;50.742;4.224;2024-03-23T02:48:22;8.10;99.90
20712;DHT22;10517;50.742;4.224;2024-03-23T02:50:49;8.10;99.90
20712;DHT22;10517;50.742;4.224;2024-03-23T02:53:14;8.20;99.90
20712;DHT22;10517;50.742;4.224;2024-03-23T02:55:40;8.20;99.90
20712;DHT22;10517;50.742;4.224;2024-03-23T02:58:05;8.20;99.90
20712;DHT22;10517;50.742;4.224;2024-03-23T03:00:31;8.20;99.90
20712;DHT22;10517;50.742;4.224;2024-03-23T03:02:56;8.10;99.90
20712;DHT22;10517;50.742;4.224;2024-03-23T03:05:22;8.20;99.90
20712;DHT22;10517;50.742;4.224;2024-03-23T03:07:48;8.20;99.90
20712;DHT22;10517;50.742;4.224;2024-03-23T03:10:14;8.10;99.90
20712;DHT22;10517;50.742;4.224;2024-03-23T03:12:39;8.20;99.90
20712;DHT22;10517;50.742;4.224;2024-03-23T03:15:05;8.10;99.90
20712;DHT22;10517;50.742;4.224;2024-03-23T03:17:31;8.10;99.90
20712;DHT22;10517;50.742;4.224;2024-03-23T03:19:57;8.10;99.90
20712;DHT22;10517;50.742;4.224;2024-03-23T03:22:22;8.10;99.90
20712;DHT22;10517;50.742;4.224;2024-03-23T03:24:49;8.10;99.90
20712;DHT22;10517;50.742;4.224;2024-03-23T03:27:14;8.10;99.90
20712;DHT22;10517;50.742;4.224;2024-03-23T03:29:40;8.10;99.90
20712;DHT22;10517;50.742;4.224;2024-03-23T03:32:06;8.00;99.90
20712;DHT22;10517;50.742;4.224;2024-03-23T03:34:31;8.00;99.90
20712;DHT22;10517;50.742;4.224;2024-03-23T03:36:57;7.90;99.90
20712;DHT22;10517;50.742;4.224;2024-03-23T03:39:23;7.90;99.90
20712;DHT22;10517;50.742;4.224;2024-03-23T03:41:49;7.90;99.90
20712;DHT22;10517;50.742;4.224;2024-03-23T03:44:16;7.90;99.90
20712;DHT22;10517;50.742;4.224;2024-03-23T03:46:42;7.80;99.90
20712;DHT22;10517;50.742;4.224;2024-03-23T03:49:08;7.70;99.90
20712;DHT22;10517;50.742;4.224;2024-03-23T03:51:33;7.60;99.90
20712;DHT22;10517;50.742;4.224;2024-03-23T03:53:59;7.60;99.90
20712;DHT22;10517;50.742;4.224;2024-03-23T03:56:25;7.50;99.90
20712;DHT22;10517;50.742;4.224;2024-03-23T03:58:51;7.50;99.90
20712;DHT22;10517;50.742;4.224;2024-03-23T04:01:16;7.40;99.90
20712;DHT22;10517;50.742;4.224;2024-03-23T04:03:43;7.30;99.90
20712;DHT22;10517;50.742;4.224;2024-03-23T04:06:15;7.30;99.90
20712;DHT22;10517;50.742;4.224;2024-03-23T04:08:43;7.20;99.90
20712;DHT22;10517;50.742;4.224;2024-03-23T04:11:09;7.20;99.90
20712;DHT22;10517;50.742;4.224;2024-03-23T04:13:34;7.10;99.90
20712;DHT22;10517;50.742;4.224;2024-03-23T04:16:00;7.00;99.90
20712;DHT22;10517;50.742;4.224;2024-03-23T04:18:25;7.00;99.90
20712;DHT22;10517;50.742;4.224;2024-03-23T04:20:51;7.00;99.90
20712;DHT22;10517;50.742;4.224;2024-03-23T04:23:17;7.00;99.90
20712;DHT22;10517;50.742;4.224;2024-03-23T04:25:43;6.90;99.90
20712;DHT22;10517;50.742;4.224;2024-03-23T04:28:09;6.90;99.90
20712;DHT22;10517;50.742;4.224;2024-03-23T04:30:34;6.80;99.90
20712;DHT22;10517;50.742;4.224;2024-03-23T04:33:00;6.80;99.90
20712;DHT22;10517;50.742;4.224;2024-03-23T04:35:26;6.90;99.90
20712;DHT22;10517;50.742;4.224;2024-03-23T04:37:53;6.90;99.90
20712;DHT22;10517;50.742;4.224;2024-03-23T04:40:18;6.90;99.90
20712;DHT22;10517;50.742;4.224;2024-03-23T04:42:44;7.00;99.90
20712;DHT22;10517;50.742;4.224;2024-03-23T04:45:10;7.00;99.90
20712;DHT22;10517;50.742;4.224;2024-03-23T04:47:38;7.10;99.90
20712;DHT22;10517;50.742;4.224;2024-03-23T04:50:04;7.20;99.90
20712;DHT22;10517;50.742;4.224;2024-03-23T04:52:30;7.10;99.90
20712;DHT22;10517;50.742;4.224;2024-03-23T04:54:56;7.10;99.90
20712;DHT22;10517;50.742;4.224;2024-03-23T04:57:22;7.10;99.90
20712;DHT22;10517;50.742;4.224;2024-03-23T04:59:48;7.10;99.90
20712;DHT22;10517;50.742;4.224;2024-03-23T05:02:14;6.90;99.90
20712;DHT22;10517;50.742;4.224;2024-03-23T05:04:40;6.80;99.90
20712;DHT22;10517;50.742;4.224;2024-03-23T05:07:06;6.80;99.90
20712;DHT22;10517;50.742;4.224;2024-03-23T05:09:32;6.80;99.90
20712;DHT22;10517;50.742;4.224;2024-03-23T05:11:59;6.70;99.90
20712;DHT22;10517;50.742;4.224;2024-03-23T05:14:26;6.80;99.90
20712;DHT22;10517;50.742;4.224;2024-03-23T05:16:52;6.80;99.90
20712;DHT22;10517;50.742;4.224;2024-03-23T05:19:18;6.80;99.90
20712;DHT22;10517;50.742;4.224;2024-03-23T05:21:43;6.70;99.90
20712;DHT22;10517;50.742;4.224;2024-03-23T05:24:09;6.70;99.90
20712;DHT22;10517;50.742;4.224;2024-03-23T05:26:35;6.80;99.90
20712;DHT22;10517;50.742;4.224;2024-03-23T05:29:01;6.80;99.90
20712;DHT22;10517;50.742;4.224;2024-03-23T05:31:29;6.80;99.90
20712;DHT22;10517;50.742;4.224;2024-03-23T05:33:55;6.80;99.90
20712;DHT22;10517;50.742;4.224;2024-03-23T05:36:21;6.80;99.90
20712;DHT22;10517;50.742;4.224;2024-03-23T05:38:47;6.80;99.90
20712;DHT22;10517;50.742;4.224;2024-03-23T05:41:13;6.70;99.90
20712;DHT22;10517;50.742;4.224;2024-03-23T05:43:38;6.70;99.90
20712;DHT22;10517;50.742;4.224;2024-03-23T05:46:04;6.70;99.90
20712;DHT22;10517;50.742;4.224;2024-03-23T05:48:38;6.70;99.90
20712;DHT22;10517;50.742;4.224;2024-03-23T05:51:04;6.60;99.90
20712;DHT22;10517;50.742;4.224;2024-03-23T05:53:30;6.50;99.90
20712;DHT22;10517;50.742;4.224;2024-03-23T05:56:02;6.50;99.90
20712;DHT22;10517;50.742;4.224;2024-03-23T05:58:32;6.50;99.90
20712;DHT22;10517;50.742;4.224;2024-03-23T06:00:58;6.60;99.90
20712;DHT22;10517;50.742;4.224;2024-03-23T06:03:25;6.50;99.90
20712;DHT22;10517;50.742;4.224;2024-03-23T06:05:51;6.50;99.90
20712;DHT22;10517;50.742;4.224;2024-03-23T06:08:18;6.60;99.90
20712;DHT22;10517;50.742;4.224;2024-03-23T06:10:45;6.70;99.90
20712;DHT22;10517;50.742;4.224;2024-03-23T06:13:11;6.80;99.90
20712;DHT22;10517;50.742;4.224;2024-03-23T06:15:37;6.80;99.90
20712;DHT22;10517;50.742;4.224;2024-03-23T06:18:03;6.80;99.90
20712;DHT22;10517;50.742;4.224;2024-03-23T06:20:30;6.90;99.90
20712;DHT22;10517;50.742;4.224;2024-03-23T06:22:56;7.10;99.90
20712;DHT22;10517;50.742;4.224;2024-03-23T06:25:21;7.10;99.90
20712;DHT22;10517;50.742;4.224;2024-03-23T06:27:47;7.00;99.90
20712;DHT22;10517;50.742;4.224;2024-03-23T06:30:13;7.00;99.90
20712;DHT22;10517;50.742;4.224;2024-03-23T06:32:38;7.00;99.90
20712;DHT22;10517;50.742;4.224;2024-03-23T06:35:04;7.00;99.90
20712;DHT22;10517;50.742;4.224;2024-03-23T06:37:34;7.00;99.90
20712;DHT22;10517;50.742;4.224;2024-03-23T06:39:59;6.90;99.90
20712;DHT22;10517;50.742;4.224;2024-03-23T06:42:25;6.80;99.90
20712;DHT22;10517;50.742;4.224;2024-03-23T06:44:50;6.90;99.90
20712;DHT22;10517;50.742;4.224;2024-03-23T06:47:16;6.90;99.90
20712;DHT22;10517;50.742;4.224;2024-03-23T06:49:42;6.80;99.90
20712;DHT22;10517;50.742;4.224;2024-03-23T06:52:07;6.90;99.90
20712;DHT22;10517;50.742;4.224;2024-03-23T06:54:33;6.80;99.90
20712;DHT22;10517;50.742;4.224;2024-03-23T06:56:59;6.90;99.90
20712;DHT22;10517;50.742;4.224;2024-03-23T06:59:24;7.00;99.90
20712;DHT22;10517;50.742;4.224;2024-03-23T07:01:50;7.20;99.90
20712;DHT22;10517;50.742;4.224;2024-03-23T07:04:16;7.30;99.90
20712;DHT22;10517;50.742;4.224;2024-03-23T07:06:45;7.30;99.90
20712;DHT22;10517;50.742;4.224;2024-03-23T07:09:11;7.30;99.90
20712;DHT22;10517;50.742;4.224;2024-03-23T07:11:36;7.30;99.90
20712;DHT22;10517;50.742;4.224;2024-03-23T07:14:02;7.30;99.90
20712;DHT22;10517;50.742;4.224;2024-03-23T07:16:28;7.30;99.90
20712;DHT22;10517;50.742;4.224;2024-03-23T07:18:54;7.40;99.90
20712;DHT22;10517;50.742;4.224;2024-03-23T07:21:21;7.30;99.90
20712;DHT22;10517;50.742;4.224;2024-03-23T07:23:46;7.30;99.90
20712;DHT22;10517;50.742;4.224;2024-03-23T07:26:12;7.30;99.90
20712;DHT22;10517;50.742;4.224;2024-03-23T07:28:38;7.30;99.90
20712;DHT22;10517;50.742;4.224;2024-03-23T07:31:09;7.30;99.90
20712;DHT22;10517;50.742;4.224;2024-03-23T07:33:37;7.30;99.90
20712;DHT22;10517;50.742;4.224;2024-03-23T07:36:04;7.50;99.90
20712;DHT22;10517;50.742;4.224;2024-03-23T07:38:29;7.60;99.90
20712;DHT22;10517;50.742;4.224;2024-03-23T07:41:13;7.60;99.90
20712;DHT22;10517;50.742;4.224;2024-03-23T07:43:40;7.70;99.90
20712;DHT22;10517;50.742;4.224;2024-03-23T07:46:08;7.60;99.90
20712;DHT22;10517;50.742;4.224;2024-03-23T07:48:34;7.50;99.90
20712;DHT22;10517;50.742;4.224;2024-03-23T07:51:09;7.60;99.90
20712;DHT22;10517;50.742;4.224;2024-03-23T07:53:36;7.70;99.90
20712;DHT22;10517;50.742;4.224;2024-03-23T07:58:29;7.50;99.90
20712;DHT22;10517;50.742;4.224;2024-03-23T08:00:56;7.60;99.90
20712;DHT22;10517;50.742;4.224;2024-03-23T08:03:22;7.60;99.90
20712;DHT22;10517;50.742;4.224;2024-03-23T08:05:48;7.70;99.90
20712;DHT22;10517;50.742;4.224;2024-03-23T08:08:14;7.80;99.90
20712;DHT22;10517;50.742;4.224;2024-03-23T08:10:50;7.90;99.90
20712;DHT22;10517;50.742;4.224;2024-03-23T08:13:15;8.10;99.90
20712;DHT22;10517;50.742;4.224;2024-03-23T08:15:41;8.40;99.90
20712;DHT22;10517;50.742;4.224;2024-03-23T08:18:07;8.50;99.90
20712;DHT22;10517;50.742;4.224;2024-03-23T08:20:32;8.70;99.90
20712;DHT22;10517;50.742;4.224;2024-03-23T08:22:58;9.00;99.90
20712;DHT22;10517;50.742;4.224;2024-03-23T08:25:24;9.10;99.90
20712;DHT22;10517;50.742;4.224;2024-03-23T08:27:49;9.00;99.90
20712;DHT22;10517;50.742;4.224;2024-03-23T08:30:15;9.20;99.90
20712;DHT22;10517;50.742;4.224;2024-03-23T08:32:41;9.10;99.90
20712;DHT22;10517;50.742;4.224;2024-03-23T08:35:07;9.00;99.90
20712;DHT22;10517;50.742;4.224;2024-03-23T08:37:33;8.80;99.90
20712;DHT22;10517;50.742;4.224;2024-03-23T08:39:59;8.90;99.90
20712;DHT22;10517;50.742;4.224;2024-03-23T08:42:24;8.90;99.90
20712;DHT22;10517;50.742;4.224;2024-03-23T08:44:50;9.10;99.90
20712;DHT22;10517;50.742;4.224;2024-03-23T08:47:16;9.20;99.90
20712;DHT22;10517;50.742;4.224;2024-03-23T08:49:41;9.10;99.90
20712;DHT22;10517;50.742;4.224;2024-03-23T08:52:07;9.20;99.90
20712;DHT22;10517;50.742;4.224;2024-03-23T08:54:33;9.20;99.90
20712;DHT22;10517;50.742;4.224;2024-03-23T08:56:59;9.20;99.90
20712;DHT22;10517;50.742;4.224;2024-03-23T08:59:25;9.30;99.90
20712;DHT22;10517;50.742;4.224;2024-03-23T09:01:51;9.40;99.90
20712;DHT22;10517;50.742;4.224;2024-03-23T09:04:16;9.60;99.90
20712;DHT22;10517;50.742;4.224;2024-03-23T09:06:43;9.40;99.90
20712;DHT22;10517;50.742;4.224;2024-03-23T09:09:09;9.40;99.90
20712;DHT22;10517;50.742;4.224;2024-03-23T09:11:35;9.50;99.90
20712;DHT22;10517;50.742;4.224;2024-03-23T09:14:01;9.80;99.90
20712;DHT22;10517;50.742;4.224;2024-03-23T09:16:26;10.10;99.90
20712;DHT22;10517;50.742;4.224;2024-03-23T09:18:52;10.40;99.90
20712;DHT22;10517;50.742;4.224;2024-03-23T09:21:18;10.60;99.90
20712;DHT22;10517;50.742;4.224;2024-03-23T09:23:44;10.50;99.90
20712;DHT22;10517;50.742;4.224;2024-03-23T09:26:10;10.20;99.90
20712;DHT22;10517;50.742;4.224;2024-03-23T09:28:35;10.10;99.90
20712;DHT22;10517;50.742;4.224;2024-03-23T09:31:08;10.10;99.90
20712;DHT22;10517;50.742;4.224;2024-03-23T09:33:34;9.80;99.90
20712;DHT22;10517;50.742;4.224;2024-03-23T09:36:07;9.80;99.90
20712;DHT22;10517;50.742;4.224;2024-03-23T09:38:33;9.70;99.90
20712;DHT22;10517;50.742;4.224;2024-03-23T09:40:59;9.40;99.90
20712;DHT22;10517;50.742;4.224;2024-03-23T09:43:25;9.20;99.90
20712;DHT22;10517;50.742;4.224;2024-03-23T09:45:50;9.00;99.90
20712;DHT22;10517;50.742;4.224;2024-03-23T09:48:17;9.00;99.90
20712;DHT22;10517;50.742;4.224;2024-03-23T09:50:44;9.00;99.90
20712;DHT22;10517;50.742;4.224;2024-03-23T09:53:14;9.30;99.90
20712;DHT22;10517;50.742;4.224;2024-03-23T09:55:44;9.50;99.90
20712;DHT22;10517;50.742;4.224;2024-03-23T09:58:15;9.50;99.90
20712;DHT22;10517;50.742;4.224;2024-03-23T10:00:40;9.20;99.90
20712;DHT22;10517;50.742;4.224;2024-03-23T10:03:06;9.70;99.90
20712;DHT22;10517;50.742;4.224;2024-03-23T10:05:33;10.10;99.90
20712;DHT22;10517;50.742;4.224;2024-03-23T10:08:17;10.30;99.90
20712;DHT22;10517;50.742;4.224;2024-03-23T10:10:44;10.60;99.90
20712;DHT22;10517;50.742;4.224;2024-03-23T10:13:11;11.10;99.90
20712;DHT22;10517;50.742;4.224;2024-03-23T10:15:57;11.40;99.90
20712;DHT22;10517;50.742;4.224;2024-03-23T10:18:24;11.40;99.90
20712;DHT22;10517;50.742;4.224;2024-03-23T10:21:09;11.20;99.90
20712;DHT22;10517;50.742;4.224;2024-03-23T10:23:37;10.70;99.90
20712;DHT22;10517;50.742;4.224;2024-03-23T10:26:22;10.40;99.90
20712;DHT22;10517;50.742;4.224;2024-03-23T10:29:01;10.20;99.90
20712;DHT22;10517;50.742;4.224;2024-03-23T10:31:28;10.20;99.90
20712;DHT22;10517;50.742;4.224;2024-03-23T10:33:54;10.50;99.90
20712;DHT22;10517;50.742;4.224;2024-03-23T10:36:21;10.80;99.90
20712;DHT22;10517;50.742;4.224;2024-03-23T10:38:47;10.90;99.90
20712;DHT22;10517;50.742;4.224;2024-03-23T10:41:14;10.90;99.90
20712;DHT22;10517;50.742;4.224;2024-03-23T10:43:40;11.00;99.90
20712;DHT22;10517;50.742;4.224;2024-03-23T10:46:06;10.60;99.90
20712;DHT22;10517;50.742;4.224;2024-03-23T10:48:32;10.70;99.90
20712;DHT22;10517;50.742;4.224;2024-03-23T10:50:58;10.70;99.90
20712;DHT22;10517;50.742;4.224;2024-03-23T10:53:26;10.50;99.90
20712;DHT22;10517;50.742;4.224;2024-03-23T10:55:54;10.90;99.90
20712;DHT22;10517;50.742;4.224;2024-03-23T10:58:29;11.10;99.90
20712;DHT22;10517;50.742;4.224;2024-03-23T11:00:56;11.20;99.90
20712;DHT22;10517;50.742;4.224;2024-03-23T11:03:36;11.20;99.90
20712;DHT22;10517;50.742;4.224;2024-03-23T11:06:05;11.40;99.90
20712;DHT22;10517;50.742;4.224;2024-03-23T11:08:36;11.40;99.90
20712;DHT22;10517;50.742;4.224;2024-03-23T11:13:38;10.90;99.90
20712;DHT22;10517;50.742;4.224;2024-03-23T11:16:36;11.00;99.90
20712;DHT22;10517;50.742;4.224;2024-03-23T11:19:44;11.70;99.90
20712;DHT22;10517;50.742;4.224;2024-03-23T11:22:08;12.50;99.90
20712;DHT22;10517;50.742;4.224;2024-03-23T11:24:34;12.80;99.90
20712;DHT22;10517;50.742;4.224;2024-03-23T11:27:00;11.60;99.90
20712;DHT22;10517;50.742;4.224;2024-03-23T11:29:29;10.90;99.90
20712;DHT22;10517;50.742;4.224;2024-03-23T11:31:56;10.80;99.90
20712;DHT22;10517;50.742;4.224;2024-03-23T11:34:21;10.80;99.90
20712;DHT22;10517;50.742;4.224;2024-03-23T11:36:48;10.90;99.90
20712;DHT22;10517;50.742;4.224;2024-03-23T11:39:18;10.90;99.90
20712;DHT22;10517;50.742;4.224;2024-03-23T11:41:51;10.60;99.90
20712;DHT22;10517;50.742;4.224;2024-03-23T11:44:22;10.50;99.90
20712;DHT22;10517;50.742;4.224;2024-03-23T11:46:49;10.80;99.90
20712;DHT22;10517;50.742;4.224;2024-03-23T11:49:25;11.20;99.90
20712;DHT22;10517;50.742;4.224;2024-03-23T11:51:52;11.40;99.90
20712;DHT22;10517;50.742;4.224;2024-03-23T11:54:26;11.30;99.90
20712;DHT22;10517;50.742;4.224;2024-03-23T11:56:59;11.20;99.90
20712;DHT22;10517;50.742;4.224;2024-03-23T11:59:34;11.20;99.90
20712;DHT22;10517;50.742;4.224;2024-03-23T12:02:05;11.30;99.90
20712;DHT22;10517;50.742;4.224;2024-03-23T12:04:31;11.50;99.90
20712;DHT22;10517;50.742;4.224;2024-03-23T12:07:17;12.00;99.90
20712;DHT22;10517;50.742;4.224;2024-03-23T12:09:47;12.70;99.90
20712;DHT22;10517;50.742;4.224;2024-03-23T12:12:17;13.00;99.90
20712;DHT22;10517;50.742;4.224;2024-03-23T12:15:00;12.90;99.90
20712;DHT22;10517;50.742;4.224;2024-03-23T12:17:26;13.30;99.90
20712;DHT22;10517;50.742;4.224;2024-03-23T12:19:52;13.70;99.90
20712;DHT22;10517;50.742;4.224;2024-03-23T12:22:21;14.00;99.90
20712;DHT22;10517;50.742;4.224;2024-03-23T12:24:47;13.60;99.90
20712;DHT22;10517;50.742;4.224;2024-03-23T12:27:12;12.80;99.90
20712;DHT22;10517;50.742;4.224;2024-03-23T12:29:38;12.80;99.90
20712;DHT22;10517;50.742;4.224;2024-03-23T12:32:05;12.50;99.90
20712;DHT22;10517;50.742;4.224;2024-03-23T12:34:30;12.30;99.90
20712;DHT22;10517;50.742;4.224;2024-03-23T12:36:56;11.70;99.90
20712;DHT22;10517;50.742;4.224;2024-03-23T12:39:22;11.30;99.90
20712;DHT22;10517;50.742;4.224;2024-03-23T12:41:48;10.50;99.90
20712;DHT22;10517;50.742;4.224;2024-03-23T12:44:14;9.60;99.90
20712;DHT22;10517;50.742;4.224;2024-03-23T12:46:41;9.30;99.90
20712;DHT22;10517;50.742;4.224;2024-03-23T12:49:07;9.20;99.90
20712;DHT22;10517;50.742;4.224;2024-03-23T12:51:33;9.10;99.90
20712;DHT22;10517;50.742;4.224;2024-03-23T12:53:59;9.10;99.90
20712;DHT22;10517;50.742;4.224;2024-03-23T12:56:24;9.30;99.90
20712;DHT22;10517;50.742;4.224;2024-03-23T12:58:50;9.60;99.90
20712;DHT22;10517;50.742;4.224;2024-03-23T13:01:19;9.50;99.90
20712;DHT22;10517;50.742;4.224;2024-03-23T13:03:48;9.50;99.90
20712;DHT22;10517;50.742;4.224;2024-03-23T13:06:15;9.40;99.90
20712;DHT22;10517;50.742;4.224;2024-03-23T13:08:40;9.40;99.90
20712;DHT22;10517;50.742;4.224;2024-03-23T13:11:07;9.40;99.90
20712;DHT22;10517;50.742;4.224;2024-03-23T13:13:34;9.40;99.90
20712;DHT22;10517;50.742;4.224;2024-03-23T13:16:00;9.50;99.90
20712;DHT22;10517;50.742;4.224;2024-03-23T13:18:26;9.40;99.90
20712;DHT22;10517;50.742;4.224;2024-03-23T13:20:51;9.40;99.90
20712;DHT22;10517;50.742;4.224;2024-03-23T13:23:17;9.40;99.90
20712;DHT22;10517;50.742;4.224;2024-03-23T13:25:53;9.50;99.90
20712;DHT22;10517;50.742;4.224;2024-03-23T13:28:22;9.60;99.90
20712;DHT22;10517;50.742;4.224;2024-03-23T13:33:16;9.50;99.90
20712;DHT22;10517;50.742;4.224;2024-03-23T13:35:52;9.50;99.90
20712;DHT22;10517;50.742;4.224;2024-03-23T13:38:18;9.40;99.90
20712;DHT22;10517;50.742;4.224;2024-03-23T13:40:53;9.20;99.90
20712;DHT22;10517;50.742;4.224;2024-03-23T13:43:20;8.70;99.90
20712;DHT22;10517;50.742;4.224;2024-03-23T13:45:53;8.50;99.90
20712;DHT22;10517;50.742;4.224;2024-03-23T13:48:23;8.60;99.90
20712;DHT22;10517;50.742;4.224;2024-03-23T13:50:59;8.70;99.90
20712;DHT22;10517;50.742;4.224;2024-03-23T13:53:25;8.60;99.90
20712;DHT22;10517;50.742;4.224;2024-03-23T13:55:51;8.60;99.90
20712;DHT22;10517;50.742;4.224;2024-03-23T13:58:16;8.40;99.90
20712;DHT22;10517;50.742;4.224;2024-03-23T14:00:42;8.30;99.90
20712;DHT22;10517;50.742;4.224;2024-03-23T14:03:09;8.30;99.90
20712;DHT22;10517;50.742;4.224;2024-03-23T14:05:34;8.40;99.90
20712;DHT22;10517;50.742;4.224;2024-03-23T14:08:00;8.60;99.90
20712;DHT22;10517;50.742;4.224;2024-03-23T14:10:26;8.70;99.90
20712;DHT22;10517;50.742;4.224;2024-03-23T14:12:53;8.70;99.90
20712;DHT22;10517;50.742;4.224;2024-03-23T14:15:18;8.90;99.90
20712;DHT22;10517;50.742;4.224;2024-03-23T14:17:44;10.20;99.90
20712;DHT22;10517;50.742;4.224;2024-03-23T14:20:10;11.50;99.90
20712;DHT22;10517;50.742;4.224;2024-03-23T14:22:37;12.20;99.90
20712;DHT22;10517;50.742;4.224;2024-03-23T14:25:03;11.90;99.90
20712;DHT22;10517;50.742;4.224;2024-03-23T14:27:28;11.30;99.90
20712;DHT22;10517;50.742;4.224;2024-03-23T14:29:54;10.80;99.90
20712;DHT22;10517;50.742;4.224;2024-03-23T14:32:21;10.60;99.90
20712;DHT22;10517;50.742;4.224;2024-03-23T14:34:47;10.50;99.90
20712;DHT22;10517;50.742;4.224;2024-03-23T14:37:12;10.60;99.90
20712;DHT22;10517;50.742;4.224;2024-03-23T14:39:38;11.80;99.90
20712;DHT22;10517;50.742;4.224;2024-03-23T14:42:07;14.00;99.90
20712;DHT22;10517;50.742;4.224;2024-03-23T14:44:34;16.00;99.90
20712;DHT22;10517;50.742;4.224;2024-03-23T14:46:59;17.30;99.90
20712;DHT22;10517;50.742;4.224;2024-03-23T14:49:25;17.60;99.90
20712;DHT22;10517;50.742;4.224;2024-03-23T14:51:51;17.00;99.90
20712;DHT22;10517;50.742;4.224;2024-03-23T14:54:17;15.80;99.90
20712;DHT22;10517;50.742;4.224;2024-03-23T14:56:42;14.60;99.90
20712;DHT22;10517;50.742;4.224;2024-03-23T14:59:08;13.90;99.90
20712;DHT22;10517;50.742;4.224;2024-03-23T15:01:33;14.40;99.90
20712;DHT22;10517;50.742;4.224;2024-03-23T15:04:00;15.80;99.90
20712;DHT22;10517;50.742;4.224;2024-03-23T15:06:25;17.00;99.90
20712;DHT22;10517;50.742;4.224;2024-03-23T15:08:51;18.00;99.90
20712;DHT22;10517;50.742;4.224;2024-03-23T15:11:16;18.40;99.90
20712;DHT22;10517;50.742;4.224;2024-03-23T15:13:45;18.70;99.90
20712;DHT22;10517;50.742;4.224;2024-03-23T15:16:10;19.00;99.90
20712;DHT22;10517;50.742;4.224;2024-03-23T15:18:36;19.30;99.90
20712;DHT22;10517;50.742;4.224;2024-03-23T15:21:03;20.50;99.90
20712;DHT22;10517;50.742;4.224;2024-03-23T15:23:33;21.10;99.90
20712;DHT22;10517;50.742;4.224;2024-03-23T15:26:00;21.20;99.90
20712;DHT22;10517;50.742;4.224;2024-03-23T15:28:26;19.90;99.90
20712;DHT22;10517;50.742;4.224;2024-03-23T15:31:06;20.30;99.90
20712;DHT22;10517;50.742;4.224;2024-03-23T15:33:32;20.40;99.90
20712;DHT22;10517;50.742;4.224;2024-03-23T15:36:02;21.40;99.90
20712;DHT22;10517;50.742;4.224;2024-03-23T15:38:28;21.90;99.90
20712;DHT22;10517;50.742;4.224;2024-03-23T15:40:54;22.50;99.90
20712;DHT22;10517;50.742;4.224;2024-03-23T15:43:20;21.40;99.90
20712;DHT22;10517;50.742;4.224;2024-03-23T15:45:59;20.80;99.90
20712;DHT22;10517;50.742;4.224;2024-03-23T15:48:26;21.40;99.90
20712;DHT22;10517;50.742;4.224;2024-03-23T15:50:59;21.50;99.90
20712;DHT22;10517;50.742;4.224;2024-03-23T15:53:26;21.10;99.90
20712;DHT22;10517;50.742;4.224;2024-03-23T15:55:56;20.80;99.90
20712;DHT22;10517;50.742;4.224;2024-03-23T15:58:22;19.40;99.90
20712;DHT22;10517;50.742;4.224;2024-03-23T16:00:55;19.40;99.90
20712;DHT22;10517;50.742;4.224;2024-03-23T16:03:21;18.60;99.90
20712;DHT22;10517;50.742;4.224;2024-03-23T16:05:53;16.90;99.90
20712;DHT22;10517;50.742;4.224;2024-03-23T16:08:20;16.20;99.90
20712;DHT22;10517;50.742;4.224;2024-03-23T16:10:45;15.30;99.90
20712;DHT22;10517;50.742;4.224;2024-03-23T16:13:11;14.30;99.90
20712;DHT22;10517;50.742;4.224;2024-03-23T16:15:37;13.70;99.90
20712;DHT22;10517;50.742;4.224;2024-03-23T16:18:03;13.10;99.90
20712;DHT22;10517;50.742;4.224;2024-03-23T16:20:29;13.20;99.90
20712;DHT22;10517;50.742;4.224;2024-03-23T16:22:55;13.20;99.90
20712;DHT22;10517;50.742;4.224;2024-03-23T16:25:21;13.10;99.90
20712;DHT22;10517;50.742;4.224;2024-03-23T16:27:47;12.80;99.90
20712;DHT22;10517;50.742;4.224;2024-03-23T16:30:13;12.50;99.90
20712;DHT22;10517;50.742;4.224;2024-03-23T16:32:39;12.30;99.90
20712;DHT22;10517;50.742;4.224;2024-03-23T16:35:05;12.10;99.90
20712;DHT22;10517;50.742;4.224;2024-03-23T16:37:31;12.10;99.90
20712;DHT22;10517;50.742;4.224;2024-03-23T16:39:56;12.00;99.90